sensor_id;sensor_type;location;lat;lon;timestamp;P1;durP1;ratioP1;P2;durP2;ratioP2
75928;SDS011;64606;44.062;2.986;2023-01-25T00:01:37;42.97;;;18.83;;
75928;SDS011;64606;44.062;2.986;2023-01-25T00:04:03;44.88;;;20.52;;
75928;SDS011;64606;44.062;2.986;2023-01-25T00:06:29;39.60;;;18.27;;
75928;SDS011;64606;44.062;2.986;2023-01-25T00:08:55;34.40;;;16.30;;
75928;SDS011;64606;44.062;2.986;2023-01-25T00:11:21;31.10;;;14.90;;
75928;SDS011;64606;44.062;2.986;2023-01-25T00:13:48;34.50;;;16.73;;
75928;SDS011;64606;44.062;2.986;2023-01-25T00:16:14;37.05;;;18.30;;
75928;SDS011;64606;44.062;2.986;2023-01-25T00:18:40;47.13;;;19.95;;
75928;SDS011;64606;44.062;2.986;2023-01-25T00:23:38;44.80;;;18.67;;
75928;SDS011;64606;44.062;2.986;2023-01-25T00:26:04;61.83;;;24.35;;
75928;SDS011;64606;44.062;2.986;2023-01-25T00:28:30;78.68;;;32.03;;
75928;SDS011;64606;44.062;2.986;2023-01-25T00:31:00;51.03;;;21.33;;
75928;SDS011;64606;44.062;2.986;2023-01-25T00:33:39;50.80;;;21.45;;
75928;SDS011;64606;44.062;2.986;2023-01-25T00:38:54;37.30;;;16.55;;
75928;SDS011;64606;44.062;2.986;2023-01-25T00:41:23;50.45;;;21.20;;
75928;SDS011;64606;44.062;2.986;2023-01-25T00:43:49;46.63;;;20.38;;
75928;SDS011;64606;44.062;2.986;2023-01-25T00:46:16;179.98;;;61.53;;
75928;SDS011;64606;44.062;2.986;2023-01-25T00:48:42;109.15;;;40.53;;
75928;SDS011;64606;44.062;2.986;2023-01-25T00:51:08;65.47;;;24.02;;
75928;SDS011;64606;44.062;2.986;2023-01-25T00:53:34;63.58;;;25.13;;
75928;SDS011;64606;44.062;2.986;2023-01-25T00:56:01;59.95;;;24.88;;
75928;SDS011;64606;44.062;2.986;2023-01-25T00:58:27;52.10;;;22.45;;
75928;SDS011;64606;44.062;2.986;2023-01-25T01:00:54;100.55;;;35.10;;
75928;SDS011;64606;44.062;2.986;2023-01-25T01:03:20;59.30;;;22.92;;
75928;SDS011;64606;44.062;2.986;2023-01-25T01:05:46;86.45;;;32.17;;
75928;SDS011;64606;44.062;2.986;2023-01-25T01:08:13;37.20;;;17.48;;
75928;SDS011;64606;44.062;2.986;2023-01-25T01:10:39;44.53;;;19.17;;
75928;SDS011;64606;44.062;2.986;2023-01-25T01:13:05;40.05;;;18.70;;
75928;SDS011;64606;44.062;2.986;2023-01-25T01:15:34;36.50;;;16.48;;
75928;SDS011;64606;44.062;2.986;2023-01-25T01:18:00;37.20;;;16.80;;
75928;SDS011;64606;44.062;2.986;2023-01-25T01:20:26;34.40;;;15.20;;
75928;SDS011;64606;44.062;2.986;2023-01-25T01:22:53;74.63;;;26.88;;
75928;SDS011;64606;44.062;2.986;2023-01-25T01:25:19;50.55;;;20.23;;
75928;SDS011;64606;44.062;2.986;2023-01-25T01:27:45;123.50;;;50.38;;
75928;SDS011;64606;44.062;2.986;2023-01-25T01:30:12;122.70;;;50.35;;
75928;SDS011;64606;44.062;2.986;2023-01-25T01:32:38;126.78;;;55.85;;
75928;SDS011;64606;44.062;2.986;2023-01-25T01:35:04;70.97;;;29.75;;
75928;SDS011;64606;44.062;2.986;2023-01-25T01:37:31;50.88;;;23.88;;
75928;SDS011;64606;44.062;2.986;2023-01-25T01:39:57;42.10;;;19.83;;
75928;SDS011;64606;44.062;2.986;2023-01-25T01:42:23;50.47;;;23.02;;
75928;SDS011;64606;44.062;2.986;2023-01-25T01:44:50;38.03;;;18.52;;
75928;SDS011;64606;44.062;2.986;2023-01-25T01:49:44;37.13;;;16.80;;
75928;SDS011;64606;44.062;2.986;2023-01-25T01:52:13;33.80;;;16.08;;
75928;SDS011;64606;44.062;2.986;2023-01-25T01:57:10;39.17;;;18.23;;
75928;SDS011;64606;44.062;2.986;2023-01-25T01:59:43;44.22;;;19.80;;
75928;SDS011;64606;44.062;2.986;2023-01-25T02:02:11;39.97;;;17.15;;
75928;SDS011;64606;44.062;2.986;2023-01-25T02:04:38;36.67;;;16.85;;
75928;SDS011;64606;44.062;2.986;2023-01-25T02:07:12;32.35;;;15.52;;
75928;SDS011;64606;44.062;2.986;2023-01-25T02:09:40;39.22;;;17.55;;
75928;SDS011;64606;44.062;2.986;2023-01-25T02:12:06;37.38;;;16.98;;
75928;SDS011;64606;44.062;2.986;2023-01-25T02:14:32;47.35;;;20.40;;
75928;SDS011;64606;44.062;2.986;2023-01-25T02:16:59;49.58;;;19.65;;
75928;SDS011;64606;44.062;2.986;2023-01-25T02:19:32;54.38;;;21.52;;
75928;SDS011;64606;44.062;2.986;2023-01-25T02:22:02;44.58;;;19.50;;
75928;SDS011;64606;44.062;2.986;2023-01-25T02:24:31;60.38;;;23.60;;
75928;SDS011;64606;44.062;2.986;2023-01-25T02:26:58;52.63;;;22.58;;
75928;SDS011;64606;44.062;2.986;2023-01-25T02:29:24;49.85;;;20.40;;
75928;SDS011;64606;44.062;2.986;2023-01-25T02:31:57;38.55;;;16.98;;
75928;SDS011;64606;44.062;2.986;2023-01-25T02:34:23;39.30;;;17.80;;
75928;SDS011;64606;44.062;2.986;2023-01-25T02:36:49;45.83;;;19.92;;
75928;SDS011;64606;44.062;2.986;2023-01-25T02:39:15;41.08;;;18.92;;
75928;SDS011;64606;44.062;2.986;2023-01-25T02:41:43;40.03;;;18.58;;
75928;SDS011;64606;44.062;2.986;2023-01-25T02:44:28;38.65;;;17.63;;
75928;SDS011;64606;44.062;2.986;2023-01-25T02:46:55;38.17;;;16.95;;
75928;SDS011;64606;44.062;2.986;2023-01-25T02:49:21;41.45;;;17.80;;
75928;SDS011;64606;44.062;2.986;2023-01-25T02:51:49;39.03;;;17.67;;
75928;SDS011;64606;44.062;2.986;2023-01-25T02:54:16;40.58;;;17.23;;
75928;SDS011;64606;44.062;2.986;2023-01-25T02:56:43;34.58;;;15.95;;
75928;SDS011;64606;44.062;2.986;2023-01-25T02:59:09;37.30;;;17.80;;
75928;SDS011;64606;44.062;2.986;2023-01-25T03:01:37;38.10;;;17.20;;
75928;SDS011;64606;44.062;2.986;2023-01-25T03:04:04;36.13;;;17.52;;
75928;SDS011;64606;44.062;2.986;2023-01-25T03:06:31;35.25;;;16.98;;
75928;SDS011;64606;44.062;2.986;2023-01-25T03:08:57;38.17;;;16.30;;
75928;SDS011;64606;44.062;2.986;2023-01-25T03:11:23;36.75;;;16.90;;
75928;SDS011;64606;44.062;2.986;2023-01-25T03:13:49;33.88;;;16.60;;
75928;SDS011;64606;44.062;2.986;2023-01-25T03:16:15;39.42;;;17.55;;
75928;SDS011;64606;44.062;2.986;2023-01-25T03:18:42;33.63;;;16.55;;
75928;SDS011;64606;44.062;2.986;2023-01-25T03:21:10;32.70;;;15.82;;
75928;SDS011;64606;44.062;2.986;2023-01-25T03:23:36;37.85;;;17.02;;
75928;SDS011;64606;44.062;2.986;2023-01-25T03:26:10;35.63;;;17.13;;
75928;SDS011;64606;44.062;2.986;2023-01-25T03:28:36;31.27;;;15.32;;
75928;SDS011;64606;44.062;2.986;2023-01-25T03:31:03;35.35;;;16.10;;
75928;SDS011;64606;44.062;2.986;2023-01-25T03:33:30;34.10;;;15.85;;
75928;SDS011;64606;44.062;2.986;2023-01-25T03:35:56;33.80;;;16.58;;
75928;SDS011;64606;44.062;2.986;2023-01-25T03:38:22;31.13;;;15.02;;
75928;SDS011;64606;44.062;2.986;2023-01-25T03:40:48;32.28;;;15.80;;
75928;SDS011;64606;44.062;2.986;2023-01-25T03:43:15;70.55;;;36.45;;
75928;SDS011;64606;44.062;2.986;2023-01-25T03:45:41;41.53;;;21.23;;
75928;SDS011;64606;44.062;2.986;2023-01-25T03:48:07;46.47;;;23.98;;
75928;SDS011;64606;44.062;2.986;2023-01-25T03:50:33;36.67;;;18.13;;
75928;SDS011;64606;44.062;2.986;2023-01-25T03:52:59;40.05;;;20.15;;
75928;SDS011;64606;44.062;2.986;2023-01-25T03:55:31;33.67;;;16.90;;
75928;SDS011;64606;44.062;2.986;2023-01-25T03:57:57;31.95;;;16.15;;
75928;SDS011;64606;44.062;2.986;2023-01-25T04:00:23;33.17;;;15.85;;
75928;SDS011;64606;44.062;2.986;2023-01-25T04:02:49;32.05;;;15.93;;
75928;SDS011;64606;44.062;2.986;2023-01-25T04:05:16;36.08;;;16.40;;
75928;SDS011;64606;44.062;2.986;2023-01-25T04:07:42;34.75;;;16.52;;
75928;SDS011;64606;44.062;2.986;2023-01-25T04:10:09;32.85;;;16.48;;
75928;SDS011;64606;44.062;2.986;2023-01-25T04:12:35;32.03;;;16.58;;
75928;SDS011;64606;44.062;2.986;2023-01-25T04:15:02;33.50;;;16.85;;
75928;SDS011;64606;44.062;2.986;2023-01-25T04:17:28;34.90;;;17.08;;
75928;SDS011;64606;44.062;2.986;2023-01-25T04:19:54;34.53;;;16.60;;
75928;SDS011;64606;44.062;2.986;2023-01-25T04:22:20;33.75;;;16.05;;
75928;SDS011;64606;44.062;2.986;2023-01-25T04:24:46;33.22;;;16.65;;
75928;SDS011;64606;44.062;2.986;2023-01-25T04:27:12;32.22;;;15.43;;
75928;SDS011;64606;44.062;2.986;2023-01-25T04:29:38;33.00;;;15.82;;
75928;SDS011;64606;44.062;2.986;2023-01-25T04:32:05;32.80;;;16.20;;
75928;SDS011;64606;44.062;2.986;2023-01-25T04:34:31;34.95;;;16.25;;
75928;SDS011;64606;44.062;2.986;2023-01-25T04:36:57;32.67;;;16.55;;
75928;SDS011;64606;44.062;2.986;2023-01-25T04:39:23;30.17;;;15.50;;
75928;SDS011;64606;44.062;2.986;2023-01-25T04:41:49;33.75;;;16.17;;
75928;SDS011;64606;44.062;2.986;2023-01-25T04:44:15;31.80;;;15.65;;
75928;SDS011;64606;44.062;2.986;2023-01-25T04:46:41;31.17;;;15.15;;
75928;SDS011;64606;44.062;2.986;2023-01-25T04:49:07;29.90;;;15.30;;
75928;SDS011;64606;44.062;2.986;2023-01-25T04:51:34;31.90;;;16.50;;
75928;SDS011;64606;44.062;2.986;2023-01-25T04:54:00;36.47;;;16.33;;
75928;SDS011;64606;44.062;2.986;2023-01-25T04:56:26;30.58;;;15.65;;
75928;SDS011;64606;44.062;2.986;2023-01-25T04:58:52;31.33;;;15.10;;
75928;SDS011;64606;44.062;2.986;2023-01-25T05:01:18;31.50;;;15.85;;
75928;SDS011;64606;44.062;2.986;2023-01-25T05:03:44;33.03;;;16.42;;
75928;SDS011;64606;44.062;2.986;2023-01-25T05:06:10;32.50;;;15.40;;
75928;SDS011;64606;44.062;2.986;2023-01-25T05:08:36;34.25;;;16.30;;
75928;SDS011;64606;44.062;2.986;2023-01-25T05:11:03;39.22;;;18.20;;
75928;SDS011;64606;44.062;2.986;2023-01-25T05:13:29;34.00;;;16.65;;
75928;SDS011;64606;44.062;2.986;2023-01-25T05:15:55;31.73;;;15.88;;
75928;SDS011;64606;44.062;2.986;2023-01-25T05:18:22;31.20;;;15.55;;
75928;SDS011;64606;44.062;2.986;2023-01-25T05:20:52;33.47;;;15.98;;
75928;SDS011;64606;44.062;2.986;2023-01-25T05:23:20;35.20;;;16.55;;
75928;SDS011;64606;44.062;2.986;2023-01-25T05:25:46;31.80;;;15.07;;
75928;SDS011;64606;44.062;2.986;2023-01-25T05:28:31;33.73;;;15.40;;
75928;SDS011;64606;44.062;2.986;2023-01-25T05:30:57;32.15;;;14.77;;
75928;SDS011;64606;44.062;2.986;2023-01-25T05:33:23;30.50;;;15.23;;
75928;SDS011;64606;44.062;2.986;2023-01-25T05:35:49;33.25;;;16.33;;
75928;SDS011;64606;44.062;2.986;2023-01-25T05:38:16;40.17;;;17.33;;
75928;SDS011;64606;44.062;2.986;2023-01-25T05:40:42;28.67;;;14.57;;
75928;SDS011;64606;44.062;2.986;2023-01-25T05:43:08;31.88;;;15.23;;
75928;SDS011;64606;44.062;2.986;2023-01-25T05:45:34;30.05;;;15.07;;
75928;SDS011;64606;44.062;2.986;2023-01-25T05:48:00;31.27;;;14.98;;
75928;SDS011;64606;44.062;2.986;2023-01-25T05:50:26;73.30;;;42.53;;
75928;SDS011;64606;44.062;2.986;2023-01-25T05:52:52;36.10;;;18.75;;
75928;SDS011;64606;44.062;2.986;2023-01-25T05:55:18;32.08;;;15.50;;
75928;SDS011;64606;44.062;2.986;2023-01-25T05:57:45;31.00;;;15.80;;
75928;SDS011;64606;44.062;2.986;2023-01-25T06:00:11;30.63;;;15.15;;
75928;SDS011;64606;44.062;2.986;2023-01-25T06:02:37;32.60;;;16.33;;
75928;SDS011;64606;44.062;2.986;2023-01-25T06:05:03;34.88;;;16.80;;
75928;SDS011;64606;44.062;2.986;2023-01-25T06:07:33;31.70;;;15.18;;
75928;SDS011;64606;44.062;2.986;2023-01-25T06:10:00;32.25;;;15.43;;
75928;SDS011;64606;44.062;2.986;2023-01-25T06:12:26;37.17;;;16.35;;
75928;SDS011;64606;44.062;2.986;2023-01-25T06:14:53;42.08;;;18.90;;
75928;SDS011;64606;44.062;2.986;2023-01-25T06:17:19;48.42;;;21.13;;
75928;SDS011;64606;44.062;2.986;2023-01-25T06:19:45;42.03;;;18.92;;
75928;SDS011;64606;44.062;2.986;2023-01-25T06:22:11;75.35;;;31.15;;
75928;SDS011;64606;44.062;2.986;2023-01-25T06:24:37;70.40;;;29.83;;
75928;SDS011;64606;44.062;2.986;2023-01-25T06:27:03;41.42;;;18.40;;
75928;SDS011;64606;44.062;2.986;2023-01-25T06:29:29;40.42;;;18.30;;
75928;SDS011;64606;44.062;2.986;2023-01-25T06:31:55;37.55;;;17.75;;
75928;SDS011;64606;44.062;2.986;2023-01-25T06:34:22;38.97;;;17.17;;
75928;SDS011;64606;44.062;2.986;2023-01-25T06:36:49;36.22;;;16.00;;
75928;SDS011;64606;44.062;2.986;2023-01-25T06:39:15;33.58;;;16.15;;
75928;SDS011;64606;44.062;2.986;2023-01-25T06:41:41;33.25;;;15.52;;
75928;SDS011;64606;44.062;2.986;2023-01-25T06:44:07;34.42;;;15.98;;
75928;SDS011;64606;44.062;2.986;2023-01-25T06:46:33;33.35;;;15.93;;
75928;SDS011;64606;44.062;2.986;2023-01-25T06:48:59;34.35;;;16.42;;
75928;SDS011;64606;44.062;2.986;2023-01-25T06:51:25;35.92;;;16.60;;
75928;SDS011;64606;44.062;2.986;2023-01-25T06:53:52;35.28;;;16.98;;
75928;SDS011;64606;44.062;2.986;2023-01-25T06:56:19;40.95;;;19.02;;
75928;SDS011;64606;44.062;2.986;2023-01-25T06:58:46;37.67;;;19.15;;
75928;SDS011;64606;44.062;2.986;2023-01-25T07:01:14;42.17;;;20.20;;
75928;SDS011;64606;44.062;2.986;2023-01-25T07:03:40;45.95;;;20.35;;
75928;SDS011;64606;44.062;2.986;2023-01-25T07:06:07;47.53;;;21.17;;
75928;SDS011;64606;44.062;2.986;2023-01-25T07:08:34;43.55;;;20.70;;
75928;SDS011;64606;44.062;2.986;2023-01-25T07:11:04;42.60;;;20.70;;
75928;SDS011;64606;44.062;2.986;2023-01-25T07:13:32;46.97;;;22.52;;
75928;SDS011;64606;44.062;2.986;2023-01-25T07:15:59;60.65;;;26.73;;
75928;SDS011;64606;44.062;2.986;2023-01-25T07:18:27;73.53;;;31.05;;
75928;SDS011;64606;44.062;2.986;2023-01-25T07:20:54;83.90;;;29.10;;
75928;SDS011;64606;44.062;2.986;2023-01-25T07:23:20;65.72;;;28.83;;
75928;SDS011;64606;44.062;2.986;2023-01-25T07:25:47;64.57;;;29.70;;
75928;SDS011;64606;44.062;2.986;2023-01-25T07:28:13;69.65;;;29.58;;
75928;SDS011;64606;44.062;2.986;2023-01-25T07:30:39;66.60;;;27.48;;
75928;SDS011;64606;44.062;2.986;2023-01-25T07:33:06;67.90;;;26.45;;
75928;SDS011;64606;44.062;2.986;2023-01-25T07:35:33;44.47;;;19.27;;
75928;SDS011;64606;44.062;2.986;2023-01-25T07:37:59;47.65;;;21.30;;
75928;SDS011;64606;44.062;2.986;2023-01-25T07:40:25;42.22;;;19.15;;
75928;SDS011;64606;44.062;2.986;2023-01-25T07:42:51;41.42;;;19.80;;
75928;SDS011;64606;44.062;2.986;2023-01-25T07:45:17;39.97;;;19.52;;
75928;SDS011;64606;44.062;2.986;2023-01-25T07:47:43;38.10;;;17.92;;
75928;SDS011;64606;44.062;2.986;2023-01-25T07:50:10;41.38;;;18.67;;
75928;SDS011;64606;44.062;2.986;2023-01-25T07:52:36;42.08;;;19.63;;
75928;SDS011;64606;44.062;2.986;2023-01-25T07:55:03;36.67;;;17.13;;
75928;SDS011;64606;44.062;2.986;2023-01-25T07:57:29;39.03;;;17.13;;
75928;SDS011;64606;44.062;2.986;2023-01-25T07:59:56;40.90;;;18.05;;
75928;SDS011;64606;44.062;2.986;2023-01-25T08:02:22;35.53;;;17.33;;
75928;SDS011;64606;44.062;2.986;2023-01-25T08:04:48;34.95;;;16.63;;
75928;SDS011;64606;44.062;2.986;2023-01-25T08:07:15;40.63;;;21.10;;
75928;SDS011;64606;44.062;2.986;2023-01-25T08:09:41;43.47;;;22.00;;
75928;SDS011;64606;44.062;2.986;2023-01-25T08:12:07;35.65;;;18.35;;
75928;SDS011;64606;44.062;2.986;2023-01-25T08:14:33;35.65;;;17.08;;
75928;SDS011;64606;44.062;2.986;2023-01-25T08:17:00;37.10;;;17.40;;
75928;SDS011;64606;44.062;2.986;2023-01-25T08:19:26;40.25;;;18.63;;
75928;SDS011;64606;44.062;2.986;2023-01-25T08:21:52;41.00;;;17.95;;
75928;SDS011;64606;44.062;2.986;2023-01-25T08:24:18;32.97;;;16.77;;
75928;SDS011;64606;44.062;2.986;2023-01-25T08:26:44;33.90;;;16.75;;
75928;SDS011;64606;44.062;2.986;2023-01-25T08:29:11;36.80;;;17.42;;
75928;SDS011;64606;44.062;2.986;2023-01-25T08:31:38;46.22;;;21.45;;
75928;SDS011;64606;44.062;2.986;2023-01-25T08:34:05;40.60;;;19.38;;
75928;SDS011;64606;44.062;2.986;2023-01-25T08:36:32;40.50;;;20.17;;
75928;SDS011;64606;44.062;2.986;2023-01-25T08:38:59;34.05;;;15.80;;
75928;SDS011;64606;44.062;2.986;2023-01-25T08:41:27;35.83;;;17.55;;
75928;SDS011;64606;44.062;2.986;2023-01-25T08:43:54;35.95;;;18.17;;
75928;SDS011;64606;44.062;2.986;2023-01-25T08:46:22;39.25;;;18.92;;
75928;SDS011;64606;44.062;2.986;2023-01-25T08:48:52;35.90;;;17.40;;
75928;SDS011;64606;44.062;2.986;2023-01-25T08:51:19;37.97;;;18.13;;
75928;SDS011;64606;44.062;2.986;2023-01-25T08:53:45;36.25;;;16.95;;
75928;SDS011;64606;44.062;2.986;2023-01-25T08:56:12;37.33;;;17.20;;
75928;SDS011;64606;44.062;2.986;2023-01-25T08:58:40;41.38;;;18.23;;
75928;SDS011;64606;44.062;2.986;2023-01-25T09:01:07;36.90;;;17.67;;
75928;SDS011;64606;44.062;2.986;2023-01-25T09:03:34;33.55;;;16.90;;
75928;SDS011;64606;44.062;2.986;2023-01-25T09:06:00;35.15;;;16.77;;
75928;SDS011;64606;44.062;2.986;2023-01-25T09:08:26;33.85;;;16.10;;
75928;SDS011;64606;44.062;2.986;2023-01-25T09:10:52;34.85;;;16.25;;
75928;SDS011;64606;44.062;2.986;2023-01-25T09:13:18;36.28;;;17.70;;
75928;SDS011;64606;44.062;2.986;2023-01-25T09:15:44;39.47;;;17.48;;
75928;SDS011;64606;44.062;2.986;2023-01-25T09:18:10;34.10;;;16.98;;
75928;SDS011;64606;44.062;2.986;2023-01-25T09:20:37;31.95;;;15.85;;
75928;SDS011;64606;44.062;2.986;2023-01-25T09:23:04;32.63;;;15.15;;
75928;SDS011;64606;44.062;2.986;2023-01-25T09:25:30;31.33;;;15.80;;
75928;SDS011;64606;44.062;2.986;2023-01-25T09:27:56;34.42;;;16.08;;
75928;SDS011;64606;44.062;2.986;2023-01-25T09:30:22;29.10;;;14.98;;
75928;SDS011;64606;44.062;2.986;2023-01-25T09:32:49;28.20;;;14.88;;
75928;SDS011;64606;44.062;2.986;2023-01-25T09:35:15;32.28;;;15.35;;
75928;SDS011;64606;44.062;2.986;2023-01-25T09:37:41;33.85;;;16.08;;
75928;SDS011;64606;44.062;2.986;2023-01-25T09:40:17;37.33;;;16.52;;
75928;SDS011;64606;44.062;2.986;2023-01-25T09:42:55;34.90;;;16.10;;
75928;SDS011;64606;44.062;2.986;2023-01-25T09:45:32;33.67;;;16.17;;
75928;SDS011;64606;44.062;2.986;2023-01-25T09:48:02;31.50;;;14.95;;
75928;SDS011;64606;44.062;2.986;2023-01-25T09:51:03;33.47;;;16.52;;
75928;SDS011;64606;44.062;2.986;2023-01-25T09:53:38;37.83;;;16.77;;
75928;SDS011;64606;44.062;2.986;2023-01-25T09:56:11;32.90;;;15.95;;
75928;SDS011;64606;44.062;2.986;2023-01-25T09:58:47;34.25;;;17.35;;
75928;SDS011;64606;44.062;2.986;2023-01-25T10:03:45;33.03;;;16.60;;
75928;SDS011;64606;44.062;2.986;2023-01-25T10:06:13;34.97;;;16.83;;
75928;SDS011;64606;44.062;2.986;2023-01-25T10:08:53;34.08;;;17.52;;
75928;SDS011;64606;44.062;2.986;2023-01-25T10:13:47;31.30;;;15.73;;
75928;SDS011;64606;44.062;2.986;2023-01-25T10:16:16;37.78;;;18.60;;
75928;SDS011;64606;44.062;2.986;2023-01-25T10:18:58;37.67;;;19.05;;
75928;SDS011;64606;44.062;2.986;2023-01-25T10:22:00;37.60;;;19.40;;
75928;SDS011;64606;44.062;2.986;2023-01-25T10:26:46;37.05;;;18.33;;
75928;SDS011;64606;44.062;2.986;2023-01-25T10:29:18;34.63;;;17.60;;
75928;SDS011;64606;44.062;2.986;2023-01-25T10:31:46;33.17;;;15.50;;
75928;SDS011;64606;44.062;2.986;2023-01-25T10:34:25;30.20;;;16.05;;
75928;SDS011;64606;44.062;2.986;2023-01-25T10:36:53;31.83;;;17.23;;
75928;SDS011;64606;44.062;2.986;2023-01-25T10:39:20;34.75;;;16.73;;
75928;SDS011;64606;44.062;2.986;2023-01-25T10:41:53;40.92;;;17.73;;
75928;SDS011;64606;44.062;2.986;2023-01-25T10:44:23;36.45;;;17.05;;
75928;SDS011;64606;44.062;2.986;2023-01-25T10:46:52;34.10;;;17.92;;
75928;SDS011;64606;44.062;2.986;2023-01-25T10:49:24;31.38;;;17.10;;
75928;SDS011;64606;44.062;2.986;2023-01-25T10:51:52;30.77;;;15.57;;
75928;SDS011;64606;44.062;2.986;2023-01-25T10:54:20;35.35;;;18.00;;
75928;SDS011;64606;44.062;2.986;2023-01-25T10:56:47;34.72;;;17.98;;
75928;SDS011;64606;44.062;2.986;2023-01-25T10:59:31;36.78;;;17.73;;
75928;SDS011;64606;44.062;2.986;2023-01-25T11:02:44;30.65;;;16.42;;
75928;SDS011;64606;44.062;2.986;2023-01-25T11:04:44;31.85;;;15.60;;
75928;SDS011;64606;44.062;2.986;2023-01-25T11:07:25;32.20;;;17.30;;
75928;SDS011;64606;44.062;2.986;2023-01-25T11:09:52;35.22;;;17.85;;
75928;SDS011;64606;44.062;2.986;2023-01-25T11:12:19;41.45;;;21.73;;
75928;SDS011;64606;44.062;2.986;2023-01-25T11:14:46;38.47;;;18.98;;
75928;SDS011;64606;44.062;2.986;2023-01-25T11:17:23;40.83;;;20.35;;
75928;SDS011;64606;44.062;2.986;2023-01-25T11:20:03;42.65;;;19.83;;
75928;SDS011;64606;44.062;2.986;2023-01-25T11:22:31;43.63;;;21.52;;
75928;SDS011;64606;44.062;2.986;2023-01-25T11:24:57;39.15;;;18.98;;
75928;SDS011;64606;44.062;2.986;2023-01-25T11:27:24;36.92;;;17.77;;
75928;SDS011;64606;44.062;2.986;2023-01-25T11:32:38;36.95;;;17.80;;
75928;SDS011;64606;44.062;2.986;2023-01-25T11:35:10;37.88;;;18.75;;
75928;SDS011;64606;44.062;2.986;2023-01-25T11:43:04;33.92;;;17.48;;
75928;SDS011;64606;44.062;2.986;2023-01-25T11:52:58;35.67;;;16.73;;
75928;SDS011;64606;44.062;2.986;2023-01-25T11:55:27;29.42;;;14.63;;
75928;SDS011;64606;44.062;2.986;2023-01-25T11:57:57;29.45;;;14.98;;
75928;SDS011;64606;44.062;2.986;2023-01-25T12:05:42;31.75;;;14.00;;
75928;SDS011;64606;44.062;2.986;2023-01-25T12:08:15;31.15;;;14.10;;
75928;SDS011;64606;44.062;2.986;2023-01-25T12:20:34;51.67;;;22.85;;
75928;SDS011;64606;44.062;2.986;2023-01-25T12:28:12;30.42;;;14.85;;
75928;SDS011;64606;44.062;2.986;2023-01-25T12:35:56;31.90;;;13.52;;
75928;SDS011;64606;44.062;2.986;2023-01-25T12:38:30;35.78;;;16.58;;
75928;SDS011;64606;44.062;2.986;2023-01-25T12:41:01;27.92;;;12.80;;
75928;SDS011;64606;44.062;2.986;2023-01-25T12:43:32;28.90;;;13.10;;
75928;SDS011;64606;44.062;2.986;2023-01-25T12:46:04;29.00;;;13.27;;
75928;SDS011;64606;44.062;2.986;2023-01-25T12:48:33;28.85;;;12.70;;
75928;SDS011;64606;44.062;2.986;2023-01-25T12:51:01;27.60;;;12.57;;
75928;SDS011;64606;44.062;2.986;2023-01-25T12:53:32;25.23;;;12.02;;
75928;SDS011;64606;44.062;2.986;2023-01-25T12:55:59;26.02;;;11.02;;
75928;SDS011;64606;44.062;2.986;2023-01-25T13:06:08;26.88;;;12.23;;
75928;SDS011;64606;44.062;2.986;2023-01-25T13:09:21;43.15;;;20.15;;
75928;SDS011;64606;44.062;2.986;2023-01-25T13:11:32;27.20;;;12.25;;
75928;SDS011;64606;44.062;2.986;2023-01-25T13:16:45;30.80;;;13.48;;
75928;SDS011;64606;44.062;2.986;2023-01-25T13:21:45;22.13;;;10.10;;
75928;SDS011;64606;44.062;2.986;2023-01-25T13:24:16;21.90;;;9.10;;
75928;SDS011;64606;44.062;2.986;2023-01-25T13:31:56;21.08;;;9.70;;
75928;SDS011;64606;44.062;2.986;2023-01-25T13:37:16;16.88;;;8.18;;
75928;SDS011;64606;44.062;2.986;2023-01-25T13:44:36;19.17;;;8.82;;
75928;SDS011;64606;44.062;2.986;2023-01-25T13:47:08;18.40;;;8.13;;
75928;SDS011;64606;44.062;2.986;2023-01-25T13:49:36;20.08;;;9.27;;
75928;SDS011;64606;44.062;2.986;2023-01-25T13:52:04;20.27;;;9.27;;
75928;SDS011;64606;44.062;2.986;2023-01-25T13:54:30;18.23;;;8.48;;
75928;SDS011;64606;44.062;2.986;2023-01-25T13:57:08;20.00;;;8.88;;
75928;SDS011;64606;44.062;2.986;2023-01-25T13:59:35;16.98;;;7.72;;
75928;SDS011;64606;44.062;2.986;2023-01-25T14:02:02;17.20;;;7.93;;
75928;SDS011;64606;44.062;2.986;2023-01-25T14:04:28;17.80;;;8.15;;
75928;SDS011;64606;44.062;2.986;2023-01-25T14:06:56;17.80;;;8.27;;
75928;SDS011;64606;44.062;2.986;2023-01-25T14:09:22;19.13;;;8.13;;
75928;SDS011;64606;44.062;2.986;2023-01-25T14:11:55;16.92;;;7.93;;
75928;SDS011;64606;44.062;2.986;2023-01-25T14:14:26;17.88;;;7.93;;
75928;SDS011;64606;44.062;2.986;2023-01-25T14:16:59;19.30;;;8.57;;
75928;SDS011;64606;44.062;2.986;2023-01-25T14:19:26;20.50;;;7.95;;
75928;SDS011;64606;44.062;2.986;2023-01-25T14:24:38;17.52;;;8.27;;
75928;SDS011;64606;44.062;2.986;2023-01-25T14:27:05;19.92;;;8.95;;
75928;SDS011;64606;44.062;2.986;2023-01-25T14:29:31;19.85;;;8.40;;
75928;SDS011;64606;44.062;2.986;2023-01-25T14:32:01;18.30;;;8.63;;
75928;SDS011;64606;44.062;2.986;2023-01-25T14:34:27;21.55;;;9.65;;
75928;SDS011;64606;44.062;2.986;2023-01-25T14:37:03;22.92;;;9.07;;
75928;SDS011;64606;44.062;2.986;2023-01-25T14:39:31;22.02;;;8.90;;
75928;SDS011;64606;44.062;2.986;2023-01-25T14:41:57;21.02;;;8.63;;
75928;SDS011;64606;44.062;2.986;2023-01-25T14:44:24;23.08;;;10.30;;
75928;SDS011;64606;44.062;2.986;2023-01-25T14:46:55;22.45;;;9.30;;
75928;SDS011;64606;44.062;2.986;2023-01-25T14:49:36;19.75;;;8.88;;
75928;SDS011;64606;44.062;2.986;2023-01-25T14:52:07;20.88;;;9.15;;
75928;SDS011;64606;44.062;2.986;2023-01-25T14:54:57;18.83;;;8.55;;
75928;SDS011;64606;44.062;2.986;2023-01-25T14:57:34;19.17;;;8.70;;
75928;SDS011;64606;44.062;2.986;2023-01-25T15:00:01;20.88;;;9.15;;
75928;SDS011;64606;44.062;2.986;2023-01-25T15:02:40;17.63;;;7.70;;
75928;SDS011;64606;44.062;2.986;2023-01-25T15:05:17;19.40;;;8.63;;
75928;SDS011;64606;44.062;2.986;2023-01-25T15:07:48;20.70;;;9.40;;
75928;SDS011;64606;44.062;2.986;2023-01-25T15:13:03;20.13;;;9.07;;
75928;SDS011;64606;44.062;2.986;2023-01-25T15:15:31;17.85;;;9.27;;
75928;SDS011;64606;44.062;2.986;2023-01-25T15:17:57;21.23;;;8.70;;
75928;SDS011;64606;44.062;2.986;2023-01-25T15:20:31;20.00;;;9.48;;
75928;SDS011;64606;44.062;2.986;2023-01-25T15:25:46;27.75;;;11.63;;
75928;SDS011;64606;44.062;2.986;2023-01-25T15:28:13;28.42;;;13.73;;
75928;SDS011;64606;44.062;2.986;2023-01-25T15:30:39;29.15;;;12.45;;
75928;SDS011;64606;44.062;2.986;2023-01-25T15:33:07;26.10;;;10.70;;
75928;SDS011;64606;44.062;2.986;2023-01-25T15:35:34;26.88;;;11.27;;
75928;SDS011;64606;44.062;2.986;2023-01-25T15:38:00;20.80;;;9.00;;
75928;SDS011;64606;44.062;2.986;2023-01-25T15:40:26;21.58;;;9.48;;
75928;SDS011;64606;44.062;2.986;2023-01-25T15:42:52;21.17;;;9.75;;
75928;SDS011;64606;44.062;2.986;2023-01-25T15:45:19;30.13;;;13.07;;
75928;SDS011;64606;44.062;2.986;2023-01-25T15:47:45;22.05;;;10.30;;
75928;SDS011;64606;44.062;2.986;2023-01-25T15:50:18;20.20;;;9.57;;
75928;SDS011;64606;44.062;2.986;2023-01-25T15:52:44;18.58;;;8.50;;
75928;SDS011;64606;44.062;2.986;2023-01-25T15:55:11;20.50;;;9.10;;
75928;SDS011;64606;44.062;2.986;2023-01-25T15:57:38;14.98;;;6.72;;
75928;SDS011;64606;44.062;2.986;2023-01-25T16:00:06;18.75;;;8.18;;
75928;SDS011;64606;44.062;2.986;2023-01-25T16:02:32;17.02;;;7.65;;